Time;durP1;ratioP1;P1;durP2;ratioP2;P2;SDS_P1;SDS_P2;PMS_P1;PMS_P2;Temp;Humidity;BMP_temperature;BMP_pressure;BME280_temperature;BME280_humidity;BME280_pressure;Samples;Min_cycle;Max_cycle;Signal;HPM_P1;HPM_P2
2023/08/11 00:00:23;;;;;;;14.50;13.20;;;16.80;99.90;;;;;;5067157;28;20044;-76
2023/08/11 00:02:52;;;;;;;13.52;12.27;;;16.90;99.90;;;;;;5065681;28;20494;-75
2023/08/11 00:05:20;;;;;;;12.60;11.27;;;16.80;99.90;;;;;;5067191;28;20047;-75
2023/08/11 00:07:50;;;;;;;12.65;10.85;;;16.80;99.90;;;;;;5081906;28;20056;-75
2023/08/11 00:10:17;;;;;;;10.57;9.57;;;16.70;99.90;;;;;;5083962;28;20077;-75
2023/08/11 00:12:43;;;;;;;9.32;8.43;;;16.60;99.90;;;;;;5064732;28;20048;-75
2023/08/11 00:15:09;;;;;;;12.35;9.70;;;16.60;99.90;;;;;;5064668;28;20051;-76
2023/08/11 00:17:34;;;;;;;10.63;9.20;;;16.50;99.90;;;;;;5079643;28;20035;-76
2023/08/11 00:20:01;;;;;;;12.70;10.48;;;16.50;99.90;;;;;;5064522;28;20275;-76
2023/08/11 00:22:26;;;;;;;12.10;10.88;;;16.40;99.90;;;;;;5077619;27;20047;-75
2023/08/11 00:24:52;;;;;;;13.05;11.85;;;16.40;99.90;;;;;;5067642;28;20055;-76
2023/08/11 00:27:19;;;;;;;13.88;12.48;;;16.40;99.90;;;;;;5068342;28;20271;-76
2023/08/11 00:29:45;;;;;;;13.77;12.48;;;16.30;99.90;;;;;;5084570;28;20050;-76
2023/08/11 00:32:11;;;;;;;14.50;13.07;;;16.30;99.90;;;;;;5062905;28;20059;-76
2023/08/11 00:34:37;;;;;;;14.48;13.07;;;16.20;99.90;;;;;;5085316;28;20607;-76
2023/08/11 00:37:03;;;;;;;12.98;11.77;;;16.20;99.90;;;;;;5082274;28;20134;-76
2023/08/11 00:39:29;;;;;;;14.90;13.50;;;16.20;99.90;;;;;;5094038;28;20086;-75
2023/08/11 00:41:55;;;;;;;19.10;17.30;;;16.20;99.90;;;;;;5082655;28;20047;-76
2023/08/11 00:44:21;;;;;;;17.58;16.05;;;16.10;99.90;;;;;;5083814;28;20496;-76
2023/08/11 00:46:47;;;;;;;19.92;18.13;;;16.00;99.90;;;;;;5083812;28;20053;-75
2023/08/11 00:49:16;;;;;;;17.58;15.88;;;16.00;99.90;;;;;;5085168;28;20070;-75
2023/08/11 00:51:42;;;;;;;22.30;20.15;;;16.00;99.90;;;;;;5066801;28;20546;-75
2023/08/11 00:54:10;;;;;;;18.83;17.10;;;15.90;99.90;;;;;;5084340;28;20040;-75
2023/08/11 00:56:36;;;;;;;19.50;17.88;;;15.90;99.90;;;;;;5096292;28;20040;-75
2023/08/11 00:59:02;;;;;;;26.08;23.73;;;15.90;99.90;;;;;;5084711;28;20131;-75
2023/08/11 01:01:28;;;;;;;20.67;18.67;;;15.90;99.90;;;;;;5061840;28;20521;-75
2023/08/11 01:03:57;;;;;;;18.77;17.08;;;15.80;99.90;;;;;;5083520;28;20039;-76
2023/08/11 01:06:55;;;;;;;20.15;18.15;;;15.80;99.90;;;;;;5114080;28;20032;-75
2023/08/11 01:09:39;;;;;;;20.85;19.02;;;15.80;99.90;;;;;;5070119;28;20056;-75
2023/08/11 01:12:25;;;;;;;22.88;20.98;;;15.80;99.90;;;;;;5079107;28;20052;-75
2023/08/11 01:15:13;;;;;;;22.75;20.75;;;15.70;99.90;;;;;;5081968;28;20046;-75
2023/08/11 01:17:41;;;;;;;21.13;19.20;;;15.70;99.90;;;;;;5079682;28;20379;-74
2023/08/11 01:20:10;;;;;;;24.50;22.25;;;15.60;99.90;;;;;;5110564;28;20039;-75
2023/08/11 01:22:40;;;;;;;23.20;21.10;;;15.60;99.90;;;;;;5079185;28;20089;-75
2023/08/11 01:25:08;;;;;;;24.92;22.83;;;15.60;99.90;;;;;;5118295;27;20067;-75
2023/08/11 01:27:56;;;;;;;22.85;20.98;;;15.60;99.90;;;;;;5063946;28;20050;-75
2023/08/11 01:30:23;;;;;;;27.20;24.63;;;15.60;99.90;;;;;;5082307;28;20498;-75
2023/08/11 01:32:51;;;;;;;28.48;26.10;;;15.60;99.90;;;;;;5066013;28;20103;-75
2023/08/11 01:35:18;;;;;;;23.60;21.42;;;15.60;99.90;;;;;;5082591;28;20104;-75
2023/08/11 01:37:44;;;;;;;25.55;23.25;;;15.60;99.90;;;;;;5075768;28;20074;-75
2023/08/11 01:40:10;;;;;;;25.83;23.50;;;15.60;99.90;;;;;;5067879;28;20059;-75
2023/08/11 01:42:41;;;;;;;25.08;22.83;;;15.60;99.90;;;;;;5064952;28;20043;-75
2023/08/11 01:45:11;;;;;;;25.83;23.63;;;15.60;99.90;;;;;;5083283;28;20039;-75
2023/08/11 01:47:41;;;;;;;27.48;25.05;;;15.60;99.90;;;;;;5098766;28;20047;-75
2023/08/11 01:50:09;;;;;;;28.85;26.30;;;15.60;99.90;;;;;;5066206;28;20048;-75
2023/08/11 01:52:42;;;;;;;27.42;24.92;;;15.60;99.90;;;;;;5059431;28;20085;-75
2023/08/11 01:55:10;;;;;;;27.48;24.92;;;15.60;99.90;;;;;;5083200;28;20638;-75
2023/08/11 01:57:40;;;;;;;27.15;24.80;;;15.60;99.90;;;;;;5085791;28;20514;-75
2023/08/11 02:00:13;;;;;;;;;;;15.60;99.90;;;;;;5081900;28;20039;-75
2023/08/11 02:02:43;;;;;;;28.17;25.67;;;15.50;99.90;;;;;;5083381;28;19920;-76
2023/08/11 02:05:15;;;;;;;29.48;26.73;;;15.50;99.90;;;;;;5065526;28;20142;-75
2023/08/11 02:07:45;;;;;;;29.35;26.65;;;15.50;99.90;;;;;;5065808;28;20050;-77
2023/08/11 02:10:11;;;;;;;28.35;25.75;;;15.50;99.90;;;;;;5067042;28;20043;-77
2023/08/11 02:12:40;;;;;;;28.05;25.58;;;15.50;99.90;;;;;;5114539;27;20039;-76
2023/08/11 02:15:06;;;;;;;27.63;25.33;;;15.50;99.90;;;;;;5115286;27;20046;-77
2023/08/11 02:17:34;;;;;;;26.10;23.80;;;15.50;99.90;;;;;;5088246;28;20040;-76
2023/08/11 02:20:07;;;;;;;24.80;22.70;;;15.50;99.90;;;;;;5088546;28;21088;-76
2023/08/11 02:22:33;;;;;;;25.58;23.48;;;15.50;99.90;;;;;;5069126;28;20096;-75
2023/08/11 02:24:59;;;;;;;27.05;24.80;;;15.50;99.90;;;;;;5070694;28;20043;-75
2023/08/11 02:27:25;;;;;;;26.92;24.50;;;15.40;99.90;;;;;;5080239;28;20417;-75
2023/08/11 02:29:51;;;;;;;24.02;21.92;;;15.40;99.90;;;;;;5064697;28;20035;-75
2023/08/11 02:32:19;;;;;;;24.83;22.70;;;15.40;99.90;;;;;;5071151;28;20047;-75
2023/08/11 02:34:45;;;;;;;27.65;25.15;;;15.40;99.90;;;;;;5120022;27;20035;-75
2023/08/11 02:37:11;;;;;;;27.58;25.05;;;15.30;99.90;;;;;;5065720;28;20039;-75
2023/08/11 02:39:36;;;;;;;25.60;23.38;;;15.30;99.90;;;;;;5080795;27;20508;-75
2023/08/11 02:42:03;;;;;;;25.20;23.00;;;15.30;99.90;;;;;;5120364;27;20047;-75
2023/08/11 02:44:31;;;;;;;22.90;21.00;;;15.30;99.90;;;;;;5085916;28;20418;-75
2023/08/11 02:46:57;;;;;;;23.77;21.67;;;15.30;99.90;;;;;;5086128;28;20512;-75
2023/08/11 02:49:23;;;;;;;25.00;22.88;;;15.30;99.90;;;;;;5070434;28;20040;-75
2023/08/11 02:51:48;;;;;;;24.27;22.00;;;15.40;99.90;;;;;;5084211;28;20039;-75
2023/08/11 02:54:14;;;;;;;23.60;21.52;;;15.30;99.90;;;;;;5069515;28;20379;-75
2023/08/11 02:56:47;;;;;;;23.45;21.42;;;15.30;99.90;;;;;;5078573;28;20515;-76
2023/08/11 02:59:13;;;;;;;23.65;21.65;;;15.30;99.90;;;;;;5069883;28;20071;-75
2023/08/11 03:01:39;;;;;;;23.50;21.48;;;15.30;99.90;;;;;;5069335;28;20043;-75
2023/08/11 03:04:06;;;;;;;24.73;22.52;;;15.30;99.90;;;;;;5069437;28;20058;-75
2023/08/11 03:06:31;;;;;;;23.88;21.80;;;15.30;99.90;;;;;;5083507;28;20044;-75
2023/08/11 03:08:57;;;;;;;22.38;20.42;;;15.30;99.90;;;;;;5086071;28;20108;-75
2023/08/11 03:11:23;;;;;;;22.83;20.77;;;15.30;99.90;;;;;;5086439;28;20092;-75
2023/08/11 03:13:49;;;;;;;22.50;20.27;;;15.30;99.90;;;;;;5067332;28;20048;-75
2023/08/11 03:16:15;;;;;;;23.20;21.05;;;15.30;99.90;;;;;;5068272;28;20138;-75
2023/08/11 03:18:41;;;;;;;21.67;19.88;;;15.30;99.90;;;;;;5067140;28;20032;-75
2023/08/11 03:21:07;;;;;;;23.85;21.65;;;15.30;99.90;;;;;;5086344;28;20050;-75
2023/08/11 03:23:35;;;;;;;20.77;18.80;;;15.30;99.90;;;;;;5067976;28;20044;-74
2023/08/11 03:26:01;;;;;;;21.98;19.75;;;15.30;99.90;;;;;;5069539;28;20513;-75
2023/08/11 03:28:26;;;;;;;20.17;18.52;;;15.30;99.90;;;;;;5081527;28;20035;-75
2023/08/11 03:30:52;;;;;;;22.75;20.65;;;15.30;99.90;;;;;;5085573;28;20043;-75
2023/08/11 03:33:18;;;;;;;20.67;18.88;;;15.30;99.90;;;;;;5086094;28;20047;-75
2023/08/11 03:35:44;;;;;;;21.88;19.92;;;15.20;99.90;;;;;;5085027;28;20520;-75
2023/08/11 03:38:10;;;;;;;20.52;18.73;;;15.30;99.90;;;;;;5070619;28;20086;-75
2023/08/11 03:40:35;;;;;;;21.17;19.27;;;15.20;99.90;;;;;;5085674;28;20044;-75
2023/08/11 03:43:01;;;;;;;22.38;20.38;;;15.20;99.90;;;;;;5085571;28;20504;-75
2023/08/11 03:45:27;;;;;;;21.05;19.10;;;15.20;99.90;;;;;;5085666;28;20122;-77
2023/08/11 03:47:53;;;;;;;21.60;19.67;;;15.10;99.90;;;;;;5066917;28;20051;-76
2023/08/11 03:50:18;;;;;;;23.08;21.02;;;15.20;99.90;;;;;;5086666;28;20130;-76
2023/08/11 03:52:45;;;;;;;20.02;18.25;;;15.20;99.90;;;;;;5082583;28;20052;-75
2023/08/11 03:55:12;;;;;;;19.42;17.65;;;15.10;99.90;;;;;;5084349;28;20054;-75
2023/08/11 03:57:39;;;;;;;20.48;18.67;;;15.10;99.90;;;;;;5065251;28;20051;-75
2023/08/11 04:00:09;;;;;;;18.88;17.15;;;15.10;99.90;;;;;;5069395;28;20044;-75
2023/08/11 04:02:38;;;;;;;23.80;21.63;;;15.10;99.90;;;;;;5074211;28;20709;-75
2023/08/11 04:05:04;;;;;;;18.38;16.77;;;15.10;99.90;;;;;;5080498;28;20036;-75
2023/08/11 04:07:30;;;;;;;20.63;18.75;;;15.10;99.90;;;;;;5081070;28;20031;-75
2023/08/11 04:09:58;;;;;;;19.52;17.73;;;15.10;99.90;;;;;;5065818;28;20043;-75
2023/08/11 04:12:24;;;;;;;19.52;17.63;;;15.00;99.90;;;;;;5068012;28;20043;-76
2023/08/11 04:14:49;;;;;;;19.70;17.75;;;15.00;99.90;;;;;;5082346;28;20051;-75
2023/08/11 04:17:16;;;;;;;23.05;21.05;;;15.00;99.90;;;;;;5067659;28;20566;-76
2023/08/11 04:19:43;;;;;;;20.27;18.50;;;15.10;99.90;;;;;;5115951;27;20063;-76
2023/08/11 04:22:09;;;;;;;20.60;18.55;;;15.00;99.90;;;;;;5065542;28;20171;-76
2023/08/11 04:24:41;;;;;;;19.13;17.52;;;15.00;99.90;;;;;;5084073;28;20036;-76
2023/08/11 04:27:06;;;;;;;19.55;17.90;;;15.00;99.90;;;;;;5082084;28;20035;-75
2023/08/11 04:29:32;;;;;;;17.60;16.00;;;15.00;99.90;;;;;;5085093;28;20460;-76
2023/08/11 04:32:04;;;;;;;19.42;17.75;;;15.00;99.90;;;;;;5066150;28;20675;-76
2023/08/11 04:34:33;;;;;;;19.65;18.05;;;15.00;99.90;;;;;;5085422;28;21098;-76
2023/08/11 04:36:59;;;;;;;19.88;17.98;;;15.00;99.90;;;;;;5064462;28;20047;-75
2023/08/11 04:39:25;;;;;;;24.48;21.95;;;15.00;99.90;;;;;;5068095;28;20071;-75
2023/08/11 04:41:51;;;;;;;19.58;17.77;;;15.00;99.90;;;;;;5115592;27;20494;-76
2023/08/11 04:44:17;;;;;;;20.33;18.15;;;15.00;99.90;;;;;;5069331;28;20046;-76
2023/08/11 04:46:43;;;;;;;19.77;17.88;;;15.00;99.90;;;;;;5067925;28;20051;-76
2023/08/11 04:49:09;;;;;;;20.25;18.45;;;15.00;99.90;;;;;;5069118;28;20069;-75
2023/08/11 04:51:34;;;;;;;19.67;17.95;;;15.10;99.90;;;;;;5084514;28;20040;-75
2023/08/11 04:54:02;;;;;;;18.77;17.10;;;15.10;99.90;;;;;;5081643;28;20546;-75
2023/08/11 04:56:28;;;;;;;18.98;17.27;;;15.10;99.90;;;;;;5080963;28;20407;-75
2023/08/11 04:58:55;;;;;;;20.77;18.67;;;15.20;99.90;;;;;;5070786;28;20058;-75
2023/08/11 05:01:24;;;;;;;19.92;18.13;;;15.20;99.90;;;;;;5082964;28;20356;-75
2023/08/11 05:03:50;;;;;;;20.35;18.58;;;15.20;99.90;;;;;;5084230;28;20050;-76
2023/08/11 05:06:17;;;;;;;19.55;17.80;;;15.20;99.90;;;;;;5065460;28;20114;-75
2023/08/11 05:08:43;;;;;;;18.33;16.67;;;15.30;99.90;;;;;;5067042;28;20040;-76
2023/08/11 05:11:10;;;;;;;18.65;16.90;;;15.30;99.90;;;;;;5079743;28;20416;-75
2023/08/11 05:13:36;;;;;;;18.05;16.45;;;15.30;99.90;;;;;;5081904;28;20122;-75
2023/08/11 05:16:02;;;;;;;17.63;16.02;;;15.40;99.90;;;;;;5066794;28;20545;-75
2023/08/11 05:18:28;;;;;;;18.35;16.58;;;15.40;99.90;;;;;;5065064;28;20132;-75
2023/08/11 05:20:54;;;;;;;18.30;16.42;;;15.40;99.90;;;;;;5067503;28;20067;-75
2023/08/11 05:23:20;;;;;;;19.25;17.45;;;15.40;99.90;;;;;;5081814;28;20048;-75
2023/08/11 05:25:46;;;;;;;17.45;15.65;;;15.50;99.90;;;;;;5066307;28;20043;-75
2023/08/11 05:28:11;;;;;;;15.63;14.23;;;15.50;99.90;;;;;;5062888;28;20305;-75
2023/08/11 05:30:40;;;;;;;17.10;15.32;;;15.50;99.90;;;;;;5067040;28;20038;-75
2023/08/11 05:33:06;;;;;;;16.23;14.35;;;15.60;99.90;;;;;;5063970;28;20044;-75
2023/08/11 05:35:31;;;;;;;14.63;13.13;;;15.60;99.90;;;;;;5079679;28;20039;-75
2023/08/11 05:37:59;;;;;;;16.25;14.55;;;15.60;99.90;;;;;;5117269;27;20040;-75
2023/08/11 05:40:24;;;;;;;14.15;12.93;;;15.70;99.90;;;;;;5114033;27;20040;-76
2023/08/11 05:42:50;;;;;;;14.40;12.90;;;15.70;99.90;;;;;;5067652;28;20057;-76
2023/08/11 05:45:16;;;;;;;14.70;13.30;;;15.80;99.90;;;;;;5081952;28;20093;-76
2023/08/11 05:47:42;;;;;;;14.23;12.75;;;15.80;99.90;;;;;;5083432;28;20036;-76
2023/08/11 05:50:11;;;;;;;13.48;12.18;;;15.80;99.90;;;;;;5082478;28;20039;-76
2023/08/11 05:52:36;;;;;;;12.57;11.43;;;15.90;99.90;;;;;;5086655;28;20375;-76
2023/08/11 05:55:02;;;;;;;14.70;13.30;;;16.00;99.90;;;;;;5087313;28;20050;-76
2023/08/11 05:57:28;;;;;;;13.43;11.57;;;16.00;99.90;;;;;;5067174;28;20256;-75
2023/08/11 05:59:57;;;;;;;13.63;12.25;;;16.10;99.90;;;;;;5085701;28;20391;-75
2023/08/11 06:02:22;;;;;;;12.45;11.25;;;16.10;99.90;;;;;;5069047;28;20027;-75
2023/08/11 06:04:50;;;;;;;14.90;12.55;;;16.20;99.90;;;;;;5085515;28;20045;-75
2023/08/11 06:07:15;;;;;;;12.75;11.55;;;16.20;99.90;;;;;;5082232;28;20051;-75
2023/08/11 06:09:41;;;;;;;12.32;10.98;;;16.30;99.90;;;;;;5086949;28;20058;-75
2023/08/11 06:12:07;;;;;;;12.45;11.35;;;16.30;99.90;;;;;;5070409;28;20506;-75
2023/08/11 06:14:35;;;;;;;12.75;11.55;;;16.30;99.90;;;;;;5086771;28;20061;-75
2023/08/11 06:17:01;;;;;;;13.05;11.75;;;16.40;99.90;;;;;;5066427;28;20039;-75
2023/08/11 06:19:27;;;;;;;11.98;10.75;;;16.40;99.90;;;;;;5071895;28;20044;-75
2023/08/11 06:21:54;;;;;;;12.10;10.90;;;16.50;99.90;;;;;;5085071;28;20478;-75
2023/08/11 06:24:20;;;;;;;11.50;10.32;;;16.60;99.90;;;;;;5088052;28;20125;-75
2023/08/11 06:26:48;;;;;;;12.50;10.82;;;16.70;99.90;;;;;;5068083;28;20046;-75
2023/08/11 06:29:13;;;;;;;13.13;11.93;;;16.70;99.90;;;;;;5072444;28;20490;-75
2023/08/11 06:31:39;;;;;;;11.63;10.30;;;16.70;99.90;;;;;;5072284;28;20040;-75
2023/08/11 06:34:05;;;;;;;13.60;11.00;;;16.80;99.90;;;;;;5088896;28;20047;-75
2023/08/11 06:36:31;;;;;;;11.63;10.48;;;16.90;99.90;;;;;;5068733;27;20039;-75
2023/08/11 06:38:57;;;;;;;11.48;10.35;;;17.00;99.90;;;;;;5086781;28;20050;-75
2023/08/11 06:41:22;;;;;;;9.90;9.00;;;17.10;99.90;;;;;;5084792;27;20042;-75
2023/08/11 06:43:48;;;;;;;10.82;9.82;;;17.10;99.90;;;;;;5086746;28;20058;-75
2023/08/11 06:46:15;;;;;;;11.00;9.80;;;17.20;99.90;;;;;;5065947;28;20056;-75
2023/08/11 06:48:41;;;;;;;10.80;9.70;;;17.30;99.90;;;;;;5086317;28;20043;-75
2023/08/11 06:51:06;;;;;;;10.68;9.60;;;17.40;99.90;;;;;;5085723;28;20066;-75
2023/08/11 06:53:32;;;;;;;11.15;10.10;;;17.50;99.90;;;;;;5070480;28;20486;-76
2023/08/11 06:55:58;;;;;;;10.32;9.32;;;17.60;99.90;;;;;;5082904;28;20062;-75
2023/08/11 06:58:24;;;;;;;11.35;8.80;;;17.70;99.90;;;;;;5066516;28;20059;-75
2023/08/11 07:00:49;;;;;;;11.30;9.43;;;17.80;99.90;;;;;;5080291;28;20485;-76
2023/08/11 07:03:15;;;;;;;10.98;9.35;;;17.80;99.90;;;;;;5083363;28;20421;-75
2023/08/11 07:05:41;;;;;;;9.57;8.65;;;18.00;99.90;;;;;;5080815;28;20188;-75
2023/08/11 07:08:07;;;;;;;11.55;8.77;;;18.10;99.90;;;;;;5084291;28;20119;-75
2023/08/11 07:10:33;;;;;;;9.95;8.20;;;18.20;99.90;;;;;;5077775;28;20036;-75
2023/08/11 07:12:58;;;;;;;12.25;9.60;;;18.30;99.90;;;;;;5083487;28;20044;-75
2023/08/11 07:15:24;;;;;;;10.38;8.40;;;18.40;99.90;;;;;;5079269;28;20040;-75
2023/08/11 07:17:50;;;;;;;9.13;8.32;;;18.50;99.90;;;;;;5064158;28;20051;-75
2023/08/11 07:20:16;;;;;;;8.85;7.97;;;18.60;99.90;;;;;;5065021;28;20055;-75
2023/08/11 07:22:42;;;;;;;9.30;8.00;;;18.70;99.90;;;;;;5081837;28;20036;-75
2023/08/11 07:25:10;;;;;;;9.75;7.95;;;18.80;99.90;;;;;;5081485;28;20052;-75
2023/08/11 07:27:36;;;;;;;8.88;7.50;;;18.90;99.90;;;;;;5078208;28;20047;-75
2023/08/11 07:30:02;;;;;;;8.68;7.88;;;19.10;99.90;;;;;;5065987;28;20040;-75
2023/08/11 07:32:28;;;;;;;7.90;7.10;;;19.20;99.90;;;;;;5083552;28;20051;-75
2023/08/11 07:34:54;;;;;;;9.25;7.43;;;19.30;99.90;;;;;;5077161;28;20062;-75
2023/08/11 07:37:20;;;;;;;8.50;7.50;;;19.40;99.90;;;;;;5082811;28;20499;-75
2023/08/11 07:39:45;;;;;;;9.32;7.07;;;19.50;99.90;;;;;;5080538;28;20036;-75
2023/08/11 07:42:11;;;;;;;16.70;7.75;;;19.70;99.90;;;;;;5065758;28;20162;-75
2023/08/11 07:44:37;;;;;;;8.88;6.75;;;19.80;99.90;;;;;;5063674;28;20040;-75
2023/08/11 07:47:03;;;;;;;8.00;6.53;;;20.00;99.90;;;;;;5081528;28;20044;-75
2023/08/11 07:49:29;;;;;;;8.75;6.20;;;20.10;99.90;;;;;;5064154;28;20044;-75
2023/08/11 07:51:55;;;;;;;7.63;6.22;;;20.20;99.90;;;;;;5063597;28;20123;-75
2023/08/11 07:54:20;;;;;;;7.80;6.32;;;20.30;99.90;;;;;;5065160;28;20052;-75
2023/08/11 07:56:46;;;;;;;9.35;5.80;;;20.40;99.90;;;;;;5065150;28;20059;-75
2023/08/11 07:59:12;;;;;;;7.70;6.55;;;20.60;99.90;;;;;;5065076;28;20055;-74
2023/08/11 08:01:41;;;;;;;8.57;5.63;;;20.70;99.90;;;;;;5078466;28;20047;-75
2023/08/11 08:04:07;;;;;;;5.78;5.18;;;20.80;99.90;;;;;;5061751;28;20135;-75
2023/08/11 08:06:43;;;;;;;10.98;6.32;;;20.90;99.90;;;;;;5064846;28;20039;-75
2023/08/11 08:09:11;;;;;;;7.72;6.25;;;21.00;99.90;;;;;;5066176;28;20050;-75
2023/08/11 08:11:47;;;;;;;8.27;6.20;;;21.10;99.90;;;;;;5065403;28;20048;-75
2023/08/11 08:14:13;;;;;;;7.80;5.20;;;21.20;99.90;;;;;;5080256;28;20056;-76
2023/08/11 08:16:44;;;;;;;7.68;5.38;;;21.40;99.90;;;;;;5075559;28;20399;-75
2023/08/11 08:19:11;;;;;;;5.80;5.20;;;21.50;99.90;;;;;;5082021;28;20050;-76
2023/08/11 08:21:41;;;;;;;8.48;5.05;;;21.60;99.90;;;;;;5060217;28;20044;-76
2023/08/11 08:24:11;;;;;;;8.30;5.28;;;21.70;99.90;;;;;;5065825;28;20478;-76
2023/08/11 08:26:36;;;;;;;8.13;5.05;;;21.80;99.90;;;;;;5079239;28;20044;-76
2023/08/11 08:29:03;;;;;;;6.80;5.25;;;22.00;99.90;;;;;;5064795;28;20047;-76
2023/08/11 08:31:29;;;;;;;6.80;4.25;;;22.10;99.90;;;;;;5078548;28;20052;-76
2023/08/11 08:33:55;;;;;;;8.63;4.43;;;22.20;99.90;;;;;;5079749;28;20051;-76
2023/08/11 08:36:20;;;;;;;6.68;4.63;;;22.30;99.90;;;;;;5078342;28;20530;-75
2023/08/11 08:38:46;;;;;;;6.35;4.60;;;22.50;99.90;;;;;;5064295;28;20545;-76
2023/08/11 08:41:17;;;;;;;6.70;4.88;;;22.60;99.90;;;;;;5060650;28;20139;-75
2023/08/11 08:43:43;;;;;;;5.32;4.35;;;22.70;99.90;;;;;;5062274;28;20088;-74
2023/08/11 08:46:12;;;;;;;7.93;4.40;;;22.70;99.90;;;;;;5061044;28;20036;-75
2023/08/11 08:49:03;;;;;;;5.85;4.13;;;22.80;99.90;;;;;;5080789;28;20490;-75
2023/08/11 08:51:30;;;;;;;6.85;5.00;;;23.00;99.90;;;;;;5079223;28;20036;-74
2023/08/11 08:53:56;;;;;;;6.88;4.70;;;23.10;99.90;;;;;;5077769;28;20036;-75
2023/08/11 08:56:26;;;;;;;6.30;4.45;;;23.10;99.90;;;;;;5081922;28;20490;-75
2023/08/11 08:58:52;;;;;;;7.25;4.63;;;23.10;99.90;;;;;;5061690;28;21867;-75
2023/08/11 09:01:18;;;;;;;5.85;4.03;;;23.20;99.90;;;;;;5081743;28;20055;-75
2023/08/11 09:03:45;;;;;;;6.53;4.00;;;23.30;99.90;;;;;;5078739;28;20127;-75
2023/08/11 09:06:12;;;;;;;7.53;3.95;;;23.40;99.90;;;;;;5064534;28;20098;-75
2023/08/11 09:08:39;;;;;;;7.07;4.55;;;23.50;99.90;;;;;;5060445;28;20039;-74
2023/08/11 09:11:05;;;;;;;6.63;4.38;;;23.60;99.90;;;;;;5062710;28;20036;-75
2023/08/11 09:13:37;;;;;;;5.65;4.00;;;23.70;99.90;;;;;;5079240;28;20566;-75
2023/08/11 09:16:06;;;;;;;6.45;4.18;;;23.80;99.90;;;;;;5065024;28;20051;-75
2023/08/11 09:18:32;;;;;;;4.63;4.15;;;23.90;99.90;;;;;;5077754;28;20055;-75
2023/08/11 09:21:01;;;;;;;10.85;5.18;;;24.00;99.90;;;;;;5065087;28;20569;-75
2023/08/11 09:23:27;;;;;;;6.22;3.83;;;24.10;99.90;;;;;;5078879;28;20040;-75
2023/08/11 09:25:54;;;;;;;8.43;4.30;;;24.10;99.90;;;;;;5084636;28;20096;-75
2023/08/11 09:28:21;;;;;;;6.95;4.25;;;24.30;99.90;;;;;;5067750;28;20044;-74
2023/08/11 09:30:48;;;;;;;7.82;4.75;;;24.30;99.90;;;;;;5083736;28;20085;-75
2023/08/11 09:33:13;;;;;;;6.32;4.82;;;24.40;99.90;;;;;;5068796;28;20506;-75
2023/08/11 09:35:41;;;;;;;8.15;4.80;;;24.40;99.90;;;;;;5067174;28;20086;-75
2023/08/11 09:38:10;;;;;;;6.57;4.60;;;24.40;99.90;;;;;;5085562;28;20048;-74
2023/08/11 09:40:40;;;;;;;7.32;4.97;;;24.50;99.90;;;;;;5079190;28;20382;-75
2023/08/11 09:43:05;;;;;;;6.22;4.60;;;24.60;99.90;;;;;;5083827;28;20051;-75
2023/08/11 09:45:33;;;;;;;8.35;4.57;;;24.70;99.90;;;;;;5068598;28;20470;-75
2023/08/11 09:47:59;;;;;;;7.00;4.28;;;24.80;99.90;;;;;;5080086;28;20115;-75
2023/08/11 09:50:28;;;;;;;6.75;4.43;;;24.90;99.90;;;;;;5084828;28;20127;-75
2023/08/11 09:52:59;;;;;;;6.60;4.60;;;24.90;99.90;;;;;;5064293;28;20594;-75
2023/08/11 09:55:29;;;;;;;6.22;4.43;;;25.00;99.90;;;;;;5061969;28;20048;-74
2023/08/11 09:57:58;;;;;;;5.78;4.40;;;25.10;99.90;;;;;;5064726;28;20044;-75
2023/08/11 10:00:25;;;;;;;5.88;4.60;;;25.10;99.90;;;;;;5064232;28;20469;-74
2023/08/11 10:03:02;;;;;;;6.57;3.95;;;25.10;99.90;;;;;;5062901;28;20568;-75
2023/08/11 10:05:30;;;;;;;7.95;4.47;;;25.20;99.90;;;;;;5061605;28;20566;-74
2023/08/11 10:07:58;;;;;;;7.43;4.00;;;25.30;99.90;;;;;;5064220;28;20109;-75
2023/08/11 10:10:24;;;;;;;6.72;4.30;;;25.30;99.90;;;;;;5058008;28;20615;-75
2023/08/11 10:13:21;;;;;;;6.75;4.35;;;25.40;99.90;;;;;;5048620;28;20048;-75
2023/08/11 10:15:48;;;;;;;6.55;4.20;;;25.50;99.90;;;;;;5052990;28;20059;-76
2023/08/11 10:18:18;;;;;;;5.95;3.85;;;25.50;99.90;;;;;;5081369;28;20095;-75
2023/08/11 10:20:46;;;;;;;7.28;3.95;;;25.60;99.90;;;;;;5062270;28;20052;-74
2023/08/11 10:23:16;;;;;;;10.73;4.30;;;25.70;99.90;;;;;;5042627;28;20584;-75
2023/08/11 10:25:43;;;;;;;6.18;4.07;;;25.80;99.90;;;;;;5044037;28;20051;-75
2023/08/11 10:28:11;;;;;;;6.82;3.90;;;25.80;99.90;;;;;;5062822;28;20075;-75
2023/08/11 10:30:37;;;;;;;7.25;3.83;;;26.00;99.90;;;;;;5047336;28;20052;-75
2023/08/11 10:33:04;;;;;;;7.57;4.57;;;26.20;99.90;;;;;;5073147;28;20344;-75
2023/08/11 10:35:46;;;;;;;5.75;3.75;;;26.20;99.90;;;;;;5048274;28;20055;-75
2023/08/11 10:38:12;;;;;;;9.18;3.60;;;26.20;99.90;;;;;;5079099;28;20048;-75
2023/08/11 10:40:40;;;;;;;6.75;3.80;;;26.20;99.90;;;;;;5045143;28;20403;-75
2023/08/11 10:43:06;;;;;;;5.70;4.07;;;26.20;99.90;;;;;;5065755;28;20044;-75
2023/08/11 10:45:34;;;;;;;7.50;4.07;;;26.30;99.90;;;;;;5062430;28;20041;-75
2023/08/11 10:48:07;;;;;;;6.78;4.00;;;26.40;99.90;;;;;;5054301;28;20044;-74
2023/08/11 10:50:37;;;;;;;5.95;3.25;;;26.40;99.90;;;;;;5047140;28;20131;-75
2023/08/11 10:53:21;;;;;;;4.60;3.00;;;26.50;99.90;;;;;;5062046;28;20044;-75
2023/08/11 10:56:01;;;;;;;5.72;3.38;;;26.60;99.90;;;;;;5065537;28;20332;-75
2023/08/11 10:58:29;;;;;;;12.18;10.20;;;26.60;99.90;;;;;;5075065;28;20059;-75
2023/08/11 11:00:57;;;;;;;5.93;4.13;;;26.70;99.90;;;;;;5081093;28;20501;-75
2023/08/11 11:03:22;;;;;;;5.18;2.95;;;26.70;99.90;;;;;;5083222;28;20070;-75
2023/08/11 11:05:48;;;;;;;5.00;3.40;;;26.80;99.90;;;;;;5084047;28;20490;-75
2023/08/11 11:08:14;;;;;;;8.02;3.20;;;26.80;99.90;;;;;;5063968;28;20062;-75
2023/08/11 11:10:41;;;;;;;4.47;3.53;;;26.90;99.90;;;;;;5067014;28;20032;-75
2023/08/11 11:13:10;;;;;;;7.45;2.97;;;27.00;99.90;;;;;;5081090;28;20585;-75
2023/08/11 11:15:36;;;;;;;5.55;4.15;;;27.00;99.10;;;;;;5068539;28;20043;-75
2023/08/11 11:18:02;;;;;;;4.88;3.28;;;27.10;98.80;;;;;;5080303;28;20036;-75
2023/08/11 11:20:28;;;;;;;4.30;2.95;;;27.10;98.70;;;;;;5065852;28;20124;-75
2023/08/11 11:22:58;;;;;;;7.25;3.60;;;27.10;99.90;;;;;;5064485;28;20036;-75
2023/08/11 11:25:24;;;;;;;5.80;3.00;;;27.20;99.90;;;;;;5066316;28;20060;-75
2023/08/11 11:27:49;;;;;;;6.55;3.30;;;27.20;99.90;;;;;;5065088;28;20040;-75
2023/08/11 11:30:17;;;;;;;5.68;2.90;;;27.20;99.30;;;;;;5081631;28;20036;-75
2023/08/11 11:32:43;;;;;;;5.00;3.20;;;27.10;99.50;;;;;;5081362;28;20052;-75
2023/08/11 11:35:09;;;;;;;4.82;2.75;;;27.00;99.90;;;;;;5083035;28;20043;-75
2023/08/11 11:37:36;;;;;;;5.72;3.00;;;26.80;99.90;;;;;;5082377;28;20040;-75
2023/08/11 11:40:06;;;;;;;6.55;3.03;;;26.80;99.90;;;;;;5079537;28;20079;-75
2023/08/11 11:42:36;;;;;;;6.53;2.92;;;26.80;99.90;;;;;;5066110;28;20043;-75
2023/08/11 11:45:02;;;;;;;7.10;3.05;;;26.80;99.90;;;;;;5075861;28;20036;-75
2023/08/11 11:47:28;;;;;;;4.80;3.00;;;26.90;99.90;;;;;;5082268;28;20036;-75
2023/08/11 11:49:58;;;;;;;6.60;2.97;;;27.00;99.90;;;;;;5080671;28;20555;-75
2023/08/11 11:52:27;;;;;;;4.93;3.40;;;27.10;99.90;;;;;;5064361;28;20087;-75
2023/08/11 11:54:55;;;;;;;5.07;3.20;;;27.30;99.90;;;;;;5077646;28;20056;-75
2023/08/11 11:57:24;;;;;;;5.63;3.30;;;27.40;99.20;;;;;;5082806;28;20051;-75
2023/08/11 11:59:50;;;;;;;;;;;27.40;99.90;;;;;;5081570;28;20044;-75
2023/08/11 12:02:17;;;;;;;4.80;2.60;;;27.50;98.90;;;;;;5078405;28;19934;-75
2023/08/11 12:04:47;;;;;;;6.80;2.60;;;27.50;99.90;;;;;;5080426;28;20182;-75
2023/08/11 12:07:32;;;;;;;5.78;3.00;;;27.50;99.90;;;;;;5064053;28;20180;-76
2023/08/11 12:09:59;;;;;;;5.30;2.95;;;27.50;99.90;;;;;;5064185;28;20047;-75
2023/08/11 12:12:25;;;;;;;5.05;2.75;;;27.50;98.90;;;;;;5083871;28;20116;-75
2023/08/11 12:14:52;;;;;;;5.22;3.17;;;27.60;98.10;;;;;;5061777;28;20166;-75
2023/08/11 12:17:18;;;;;;;5.90;2.80;;;27.60;98.70;;;;;;5081124;28;20052;-75
2023/08/11 12:19:45;;;;;;;6.75;3.38;;;27.70;98.30;;;;;;5078424;28;20366;-74
2023/08/11 12:22:11;;;;;;;4.30;2.60;;;27.80;99.00;;;;;;5080234;28;20048;-75
2023/08/11 12:24:37;;;;;;;5.90;2.97;;;27.90;98.90;;;;;;5082161;28;20051;-75
2023/08/11 12:27:06;;;;;;;5.20;2.95;;;28.00;97.90;;;;;;5058872;28;20146;-75
2023/08/11 12:29:32;;;;;;;9.10;3.45;;;28.00;98.60;;;;;;5081866;28;20108;-75
2023/08/11 12:31:58;;;;;;;4.28;2.65;;;28.00;97.50;;;;;;5062355;28;20198;-75
2023/08/11 12:34:24;;;;;;;4.80;2.83;;;28.00;97.30;;;;;;5065522;28;20050;-75
2023/08/11 12:36:50;;;;;;;6.53;2.70;;;28.00;95.90;;;;;;5043074;28;20056;-75